sensor_id;sensor_type;location;lat;lon;timestamp;P1;durP1;ratioP1;P2;durP2;ratioP2
51194;SDS011;37259;49.972;19.850;2023-04-01T00:00:06;3;;;1.4;;
51194;SDS011;37259;49.972;19.850;2023-04-01T00:01:05;3;;;1.4;;
51194;SDS011;37259;49.972;19.850;2023-04-01T00:02:05;3;;;1.4;;
51194;SDS011;37259;49.972;19.850;2023-04-01T00:03:05;3;;;1.4;;
51194;SDS011;37259;49.972;19.850;2023-04-01T00:04:05;3;;;1.4;;
51194;SDS011;37259;49.972;19.850;2023-04-01T00:05:05;3;;;1.4;;
51194;SDS011;37259;49.972;19.850;2023-04-01T00:06:05;3;;;1.4;;
51194;SDS011;37259;49.972;19.850;2023-04-01T00:07:05;3;;;1.4;;
51194;SDS011;37259;49.972;19.850;2023-04-01T00:08:05;3;;;1.4;;
51194;SDS011;37259;49.972;19.850;2023-04-01T00:09:05;3;;;1.4;;
51194;SDS011;37259;49.972;19.850;2023-04-01T00:10:06;3;;;1.4;;
51194;SDS011;37259;49.972;19.850;2023-04-01T00:11:05;3;;;1.4;;
51194;SDS011;37259;49.972;19.850;2023-04-01T00:12:05;3;;;1.4;;
51194;SDS011;37259;49.972;19.850;2023-04-01T00:13:05;2.8;;;1.4;;
51194;SDS011;37259;49.972;19.850;2023-04-01T00:14:05;2.8;;;1.4;;
51194;SDS011;37259;49.972;19.850;2023-04-01T00:15:06;2.8;;;1.4;;
51194;SDS011;37259;49.972;19.850;2023-04-01T00:16:06;2.8;;;1.4;;
51194;SDS011;37259;49.972;19.850;2023-04-01T00:17:05;2.8;;;1.4;;
51194;SDS011;37259;49.972;19.850;2023-04-01T00:18:05;2.8;;;1.4;;
51194;SDS011;37259;49.972;19.850;2023-04-01T00:19:05;2.8;;;1.4;;
51194;SDS011;37259;49.972;19.850;2023-04-01T00:20:06;2.8;;;1.4;;
51194;SDS011;37259;49.972;19.850;2023-04-01T00:21:05;2.8;;;1.4;;
51194;SDS011;37259;49.972;19.850;2023-04-01T00:22:05;2.8;;;1.4;;
51194;SDS011;37259;49.972;19.850;2023-04-01T00:23:05;2.8;;;1.4;;
51194;SDS011;37259;49.972;19.850;2023-04-01T00:24:05;2.8;;;1.4;;
51194;SDS011;37259;49.972;19.850;2023-04-01T00:25:05;2.8;;;1.4;;
51194;SDS011;37259;49.972;19.850;2023-04-01T00:26:05;2.8;;;1.4;;
51194;SDS011;37259;49.972;19.850;2023-04-01T00:27:05;2.8;;;1.4;;
51194;SDS011;37259;49.972;19.850;2023-04-01T00:28:05;2.8;;;1.4;;
51194;SDS011;37259;49.972;19.850;2023-04-01T00:29:05;2.8;;;1.4;;
51194;SDS011;37259;49.972;19.850;2023-04-01T00:30:05;2.8;;;1.4;;
51194;SDS011;37259;49.972;19.850;2023-04-01T00:31:05;2.8;;;1.4;;
51194;SDS011;37259;49.972;19.850;2023-04-01T00:32:05;2.8;;;1.4;;
51194;SDS011;37259;49.972;19.850;2023-04-01T00:33:05;2.8;;;1.4;;
51194;SDS011;37259;49.972;19.850;2023-04-01T00:34:05;2.8;;;1.4;;
51194;SDS011;37259;49.972;19.850;2023-04-01T00:35:05;2.8;;;1.4;;
51194;SDS011;37259;49.972;19.850;2023-04-01T00:36:06;2.8;;;1.4;;
51194;SDS011;37259;49.972;19.850;2023-04-01T00:37:05;2.8;;;1.4;;
51194;SDS011;37259;49.972;19.850;2023-04-01T00:38:05;2.8;;;1.4;;
51194;SDS011;37259;49.972;19.850;2023-04-01T00:39:05;2.8;;;1.4;;
51194;SDS011;37259;49.972;19.850;2023-04-01T00:40:07;2.8;;;1.4;;
51194;SDS011;37259;49.972;19.850;2023-04-01T00:41:05;2.8;;;1.4;;
51194;SDS011;37259;49.972;19.850;2023-04-01T00:42:05;2.8;;;1.4;;
51194;SDS011;37259;49.972;19.850;2023-04-01T00:43:09;4.3;;;2.3;;
51194;SDS011;37259;49.972;19.850;2023-04-01T00:44:21;4.3;;;2.3;;
51194;SDS011;37259;49.972;19.850;2023-04-01T00:45:23;4.3;;;2.3;;
51194;SDS011;37259;49.972;19.850;2023-04-01T00:46:05;4.3;;;2.3;;
51194;SDS011;37259;49.972;19.850;2023-04-01T00:47:05;4.3;;;2.3;;
51194;SDS011;37259;49.972;19.850;2023-04-01T00:48:06;4.3;;;2.3;;
51194;SDS011;37259;49.972;19.850;2023-04-01T00:49:05;4.3;;;2.3;;
51194;SDS011;37259;49.972;19.850;2023-04-01T00:50:05;4.3;;;2.3;;
51194;SDS011;37259;49.972;19.850;2023-04-01T00:51:06;4.3;;;2.3;;
51194;SDS011;37259;49.972;19.850;2023-04-01T00:52:05;4.3;;;2.3;;
51194;SDS011;37259;49.972;19.850;2023-04-01T00:53:05;4.3;;;2.3;;
51194;SDS011;37259;49.972;19.850;2023-04-01T00:54:05;4.3;;;2.3;;
51194;SDS011;37259;49.972;19.850;2023-04-01T00:55:05;4.3;;;2.3;;
51194;SDS011;37259;49.972;19.850;2023-04-01T00:56:05;4.3;;;2.3;;
51194;SDS011;37259;49.972;19.850;2023-04-01T00:57:06;4.3;;;2.3;;
51194;SDS011;37259;49.972;19.850;2023-04-01T00:58:06;4.3;;;2.3;;
51194;SDS011;37259;49.972;19.850;2023-04-01T00:59:06;4.3;;;2.3;;
51194;SDS011;37259;49.972;19.850;2023-04-01T01:00:05;4.3;;;2.3;;
51194;SDS011;37259;49.972;19.850;2023-04-01T01:01:05;4.3;;;2.3;;
51194;SDS011;37259;49.972;19.850;2023-04-01T01:02:05;4.3;;;2.3;;
51194;SDS011;37259;49.972;19.850;2023-04-01T01:03:05;4.3;;;2.3;;
51194;SDS011;37259;49.972;19.850;2023-04-01T01:04:05;4.3;;;2.3;;
51194;SDS011;37259;49.972;19.850;2023-04-01T01:05:05;4.3;;;2.3;;
51194;SDS011;37259;49.972;19.850;2023-04-01T01:06:23;4.3;;;2.3;;
51194;SDS011;37259;49.972;19.850;2023-04-01T01:07:08;4.3;;;2.3;;
51194;SDS011;37259;49.972;19.850;2023-04-01T01:08:07;4.3;;;2.3;;
51194;SDS011;37259;49.972;19.850;2023-04-01T01:09:09;4.3;;;2.3;;
51194;SDS011;37259;49.972;19.850;2023-04-01T01:10:07;4.3;;;2.3;;
51194;SDS011;37259;49.972;19.850;2023-04-01T01:11:05;4.3;;;2.3;;
51194;SDS011;37259;49.972;19.850;2023-04-01T01:12:07;4.3;;;2.3;;
51194;SDS011;37259;49.972;19.850;2023-04-01T01:13:08;5.8;;;2.1;;
51194;SDS011;37259;49.972;19.850;2023-04-01T01:14:07;5.8;;;2.1;;
51194;SDS011;37259;49.972;19.850;2023-04-01T01:15:07;5.8;;;2.1;;
51194;SDS011;37259;49.972;19.850;2023-04-01T01:16:06;5.8;;;2.1;;
51194;SDS011;37259;49.972;19.850;2023-04-01T01:17:06;5.8;;;2.1;;
51194;SDS011;37259;49.972;19.850;2023-04-01T01:18:06;5.8;;;2.1;;
51194;SDS011;37259;49.972;19.850;2023-04-01T01:19:08;5.8;;;2.1;;
51194;SDS011;37259;49.972;19.850;2023-04-01T01:20:42;5.8;;;2.1;;
51194;SDS011;37259;49.972;19.850;2023-04-01T01:21:09;5.8;;;2.1;;
51194;SDS011;37259;49.972;19.850;2023-04-01T01:22:09;5.8;;;2.1;;
51194;SDS011;37259;49.972;19.850;2023-04-01T01:23:11;5.8;;;2.1;;
51194;SDS011;37259;49.972;19.850;2023-04-01T01:24:12;5.8;;;2.1;;
51194;SDS011;37259;49.972;19.850;2023-04-01T01:25:10;5.8;;;2.1;;
51194;SDS011;37259;49.972;19.850;2023-04-01T01:26:09;5.8;;;2.1;;
51194;SDS011;37259;49.972;19.850;2023-04-01T01:27:06;5.8;;;2.1;;
51194;SDS011;37259;49.972;19.850;2023-04-01T01:28:11;5.8;;;2.1;;
51194;SDS011;37259;49.972;19.850;2023-04-01T01:29:07;5.8;;;2.1;;
51194;SDS011;37259;49.972;19.850;2023-04-01T01:30:08;5.8;;;2.1;;
51194;SDS011;37259;49.972;19.850;2023-04-01T01:31:07;5.8;;;2.1;;
51194;SDS011;37259;49.972;19.850;2023-04-01T01:32:06;5.8;;;2.1;;
51194;SDS011;37259;49.972;19.850;2023-04-01T01:33:06;5.8;;;2.1;;
51194;SDS011;37259;49.972;19.850;2023-04-01T01:34:09;5.8;;;2.1;;
51194;SDS011;37259;49.972;19.850;2023-04-01T01:35:10;5.8;;;2.1;;
51194;SDS011;37259;49.972;19.850;2023-04-01T01:36:06;5.8;;;2.1;;
51194;SDS011;37259;49.972;19.850;2023-04-01T01:37:06;5.8;;;2.1;;
51194;SDS011;37259;49.972;19.850;2023-04-01T01:38:06;5.8;;;2.1;;
51194;SDS011;37259;49.972;19.850;2023-04-01T01:39:05;5.8;;;2.1;;
51194;SDS011;37259;49.972;19.850;2023-04-01T01:40:06;5.8;;;2.1;;
51194;SDS011;37259;49.972;19.850;2023-04-01T01:41:06;5.8;;;2.1;;
51194;SDS011;37259;49.972;19.850;2023-04-01T01:42:06;5.8;;;2.1;;
51194;SDS011;37259;49.972;19.850;2023-04-01T01:43:05;7.9;;;4;;
51194;SDS011;37259;49.972;19.850;2023-04-01T01:44:06;7.9;;;4;;
51194;SDS011;37259;49.972;19.850;2023-04-01T01:45:06;7.9;;;4;;
51194;SDS011;37259;49.972;19.850;2023-04-01T01:46:06;7.9;;;4;;
51194;SDS011;37259;49.972;19.850;2023-04-01T01:47:05;7.9;;;4;;
51194;SDS011;37259;49.972;19.850;2023-04-01T01:48:05;7.9;;;4;;
51194;SDS011;37259;49.972;19.850;2023-04-01T01:49:05;7.9;;;4;;
51194;SDS011;37259;49.972;19.850;2023-04-01T01:50:05;7.9;;;4;;
51194;SDS011;37259;49.972;19.850;2023-04-01T01:51:05;7.9;;;4;;
51194;SDS011;37259;49.972;19.850;2023-04-01T01:52:05;7.9;;;4;;
51194;SDS011;37259;49.972;19.850;2023-04-01T01:53:06;7.9;;;4;;
51194;SDS011;37259;49.972;19.850;2023-04-01T01:54:05;7.9;;;4;;
51194;SDS011;37259;49.972;19.850;2023-04-01T01:55:22;7.9;;;4;;
51194;SDS011;37259;49.972;19.850;2023-04-01T01:56:05;7.9;;;4;;
51194;SDS011;37259;49.972;19.850;2023-04-01T01:57:06;7.9;;;4;;
51194;SDS011;37259;49.972;19.850;2023-04-01T01:58:06;7.9;;;4;;
51194;SDS011;37259;49.972;19.850;2023-04-01T01:59:06;7.9;;;4;;
51194;SDS011;37259;49.972;19.850;2023-04-01T02:00:06;7.9;;;4;;
51194;SDS011;37259;49.972;19.850;2023-04-01T02:01:06;7.9;;;4;;
51194;SDS011;37259;49.972;19.850;2023-04-01T02:02:05;7.9;;;4;;
51194;SDS011;37259;49.972;19.850;2023-04-01T02:03:05;7.9;;;4;;
51194;SDS011;37259;49.972;19.850;2023-04-01T02:04:05;7.9;;;4;;
51194;SDS011;37259;49.972;19.850;2023-04-01T02:05:06;7.9;;;4;;
51194;SDS011;37259;49.972;19.850;2023-04-01T02:06:05;7.9;;;4;;
51194;SDS011;37259;49.972;19.850;2023-04-01T02:07:06;7.9;;;4;;
51194;SDS011;37259;49.972;19.850;2023-04-01T02:08:06;7.9;;;4;;
51194;SDS011;37259;49.972;19.850;2023-04-01T02:09:06;7.9;;;4;;
51194;SDS011;37259;49.972;19.850;2023-04-01T02:10:05;7.9;;;4;;
51194;SDS011;37259;49.972;19.850;2023-04-01T02:11:07;7.9;;;4;;
51194;SDS011;37259;49.972;19.850;2023-04-01T02:12:06;7.9;;;4;;
51194;SDS011;37259;49.972;19.850;2023-04-01T02:13:06;4.1;;;2.4;;
51194;SDS011;37259;49.972;19.850;2023-04-01T02:14:06;4.1;;;2.4;;
51194;SDS011;37259;49.972;19.850;2023-04-01T02:15:06;4.1;;;2.4;;
51194;SDS011;37259;49.972;19.850;2023-04-01T02:16:06;4.1;;;2.4;;
51194;SDS011;37259;49.972;19.850;2023-04-01T02:17:06;4.1;;;2.4;;
51194;SDS011;37259;49.972;19.850;2023-04-01T02:18:05;4.1;;;2.4;;
51194;SDS011;37259;49.972;19.850;2023-04-01T02:19:05;4.1;;;2.4;;
51194;SDS011;37259;49.972;19.850;2023-04-01T02:20:06;4.1;;;2.4;;
51194;SDS011;37259;49.972;19.850;2023-04-01T02:21:05;4.1;;;2.4;;
51194;SDS011;37259;49.972;19.850;2023-04-01T02:22:06;4.1;;;2.4;;
51194;SDS011;37259;49.972;19.850;2023-04-01T02:23:05;4.1;;;2.4;;
51194;SDS011;37259;49.972;19.850;2023-04-01T02:24:07;4.1;;;2.4;;
51194;SDS011;37259;49.972;19.850;2023-04-01T02:25:06;4.1;;;2.4;;
51194;SDS011;37259;49.972;19.850;2023-04-01T02:26:05;4.1;;;2.4;;
51194;SDS011;37259;49.972;19.850;2023-04-01T02:27:05;4.1;;;2.4;;
51194;SDS011;37259;49.972;19.850;2023-04-01T02:28:06;4.1;;;2.4;;
51194;SDS011;37259;49.972;19.850;2023-04-01T02:29:05;4.1;;;2.4;;
51194;SDS011;37259;49.972;19.850;2023-04-01T02:30:06;4.1;;;2.4;;
51194;SDS011;37259;49.972;19.850;2023-04-01T02:31:05;4.1;;;2.4;;
51194;SDS011;37259;49.972;19.850;2023-04-01T02:32:05;4.1;;;2.4;;
51194;SDS011;37259;49.972;19.850;2023-04-01T02:33:05;4.1;;;2.4;;
51194;SDS011;37259;49.972;19.850;2023-04-01T02:34:05;4.1;;;2.4;;
51194;SDS011;37259;49.972;19.850;2023-04-01T02:35:06;4.1;;;2.4;;
51194;SDS011;37259;49.972;19.850;2023-04-01T02:36:06;4.1;;;2.4;;
51194;SDS011;37259;49.972;19.850;2023-04-01T02:37:05;4.1;;;2.4;;
51194;SDS011;37259;49.972;19.850;2023-04-01T02:38:05;4.1;;;2.4;;
51194;SDS011;37259;49.972;19.850;2023-04-01T02:39:05;4.1;;;2.4;;
51194;SDS011;37259;49.972;19.850;2023-04-01T02:40:06;4.1;;;2.4;;
51194;SDS011;37259;49.972;19.850;2023-04-01T02:41:05;4.1;;;2.4;;
51194;SDS011;37259;49.972;19.850;2023-04-01T02:42:05;4.1;;;2.4;;
51194;SDS011;37259;49.972;19.850;2023-04-01T02:43:05;4;;;1.6;;
51194;SDS011;37259;49.972;19.850;2023-04-01T02:44:05;4;;;1.6;;
51194;SDS011;37259;49.972;19.850;2023-04-01T02:45:06;4;;;1.6;;
51194;SDS011;37259;49.972;19.850;2023-04-01T02:46:06;4;;;1.6;;
51194;SDS011;37259;49.972;19.850;2023-04-01T02:47:05;4;;;1.6;;
51194;SDS011;37259;49.972;19.850;2023-04-01T02:48:05;4;;;1.6;;
51194;SDS011;37259;49.972;19.850;2023-04-01T02:49:05;4;;;1.6;;
51194;SDS011;37259;49.972;19.850;2023-04-01T02:50:06;4;;;1.6;;
51194;SDS011;37259;49.972;19.850;2023-04-01T02:51:05;4;;;1.6;;
51194;SDS011;37259;49.972;19.850;2023-04-01T02:52:05;4;;;1.6;;
51194;SDS011;37259;49.972;19.850;2023-04-01T02:53:05;4;;;1.6;;
51194;SDS011;37259;49.972;19.850;2023-04-01T02:54:05;4;;;1.6;;
51194;SDS011;37259;49.972;19.850;2023-04-01T02:55:05;4;;;1.6;;
51194;SDS011;37259;49.972;19.850;2023-04-01T02:56:05;4;;;1.6;;
51194;SDS011;37259;49.972;19.850;2023-04-01T02:57:05;4;;;1.6;;
51194;SDS011;37259;49.972;19.850;2023-04-01T02:58:05;4;;;1.6;;
51194;SDS011;37259;49.972;19.850;2023-04-01T02:59:05;4;;;1.6;;
51194;SDS011;37259;49.972;19.850;2023-04-01T03:00:06;4;;;1.6;;
51194;SDS011;37259;49.972;19.850;2023-04-01T03:01:05;4;;;1.6;;
51194;SDS011;37259;49.972;19.850;2023-04-01T03:02:05;4;;;1.6;;
51194;SDS011;37259;49.972;19.850;2023-04-01T03:03:05;4;;;1.6;;
51194;SDS011;37259;49.972;19.850;2023-04-01T03:04:05;4;;;1.6;;
51194;SDS011;37259;49.972;19.850;2023-04-01T03:05:05;4;;;1.6;;
51194;SDS011;37259;49.972;19.850;2023-04-01T03:06:05;4;;;1.6;;
51194;SDS011;37259;49.972;19.850;2023-04-01T03:07:05;4;;;1.6;;
51194;SDS011;37259;49.972;19.850;2023-04-01T03:08:05;4;;;1.6;;
51194;SDS011;37259;49.972;19.850;2023-04-01T03:09:05;4;;;1.6;;
51194;SDS011;37259;49.972;19.850;2023-04-01T03:10:05;4;;;1.6;;
51194;SDS011;37259;49.972;19.850;2023-04-01T03:11:06;4;;;1.6;;
51194;SDS011;37259;49.972;19.850;2023-04-01T03:12:05;4;;;1.6;;
51194;SDS011;37259;49.972;19.850;2023-04-01T03:13:05;3.7;;;1.5;;
51194;SDS011;37259;49.972;19.850;2023-04-01T03:14:05;3.7;;;1.5;;
51194;SDS011;37259;49.972;19.850;2023-04-01T03:15:05;3.7;;;1.5;;
51194;SDS011;37259;49.972;19.850;2023-04-01T03:16:05;3.7;;;1.5;;
51194;SDS011;37259;49.972;19.850;2023-04-01T03:17:05;3.7;;;1.5;;
51194;SDS011;37259;49.972;19.850;2023-04-01T03:18:05;3.7;;;1.5;;
51194;SDS011;37259;49.972;19.850;2023-04-01T03:19:05;3.7;;;1.5;;
51194;SDS011;37259;49.972;19.850;2023-04-01T03:20:06;3.7;;;1.5;;
51194;SDS011;37259;49.972;19.850;2023-04-01T03:21:13;3.7;;;1.5;;
51194;SDS011;37259;49.972;19.850;2023-04-01T03:22:05;3.7;;;1.5;;
51194;SDS011;37259;49.972;19.850;2023-04-01T03:23:06;3.7;;;1.5;;
51194;SDS011;37259;49.972;19.850;2023-04-01T03:24:05;3.7;;;1.5;;
51194;SDS011;37259;49.972;19.850;2023-04-01T03:25:05;3.7;;;1.5;;
51194;SDS011;37259;49.972;19.850;2023-04-01T03:26:05;3.7;;;1.5;;
51194;SDS011;37259;49.972;19.850;2023-04-01T03:27:05;3.7;;;1.5;;
51194;SDS011;37259;49.972;19.850;2023-04-01T03:28:05;3.7;;;1.5;;
51194;SDS011;37259;49.972;19.850;2023-04-01T03:29:05;3.7;;;1.5;;
51194;SDS011;37259;49.972;19.850;2023-04-01T03:30:06;3.7;;;1.5;;
51194;SDS011;37259;49.972;19.850;2023-04-01T03:31:05;3.7;;;1.5;;
51194;SDS011;37259;49.972;19.850;2023-04-01T03:32:05;3.7;;;1.5;;
51194;SDS011;37259;49.972;19.850;2023-04-01T03:33:05;3.7;;;1.5;;
51194;SDS011;37259;49.972;19.850;2023-04-01T03:34:05;3.7;;;1.5;;
51194;SDS011;37259;49.972;19.850;2023-04-01T03:35:05;3.7;;;1.5;;
51194;SDS011;37259;49.972;19.850;2023-04-01T03:36:05;3.7;;;1.5;;
51194;SDS011;37259;49.972;19.850;2023-04-01T03:37:05;3.7;;;1.5;;
51194;SDS011;37259;49.972;19.850;2023-04-01T03:38:05;3.7;;;1.5;;
51194;SDS011;37259;49.972;19.850;2023-04-01T03:39:05;3.7;;;1.5;;
51194;SDS011;37259;49.972;19.850;2023-04-01T03:40:05;3.7;;;1.5;;
51194;SDS011;37259;49.972;19.850;2023-04-01T03:41:05;3.7;;;1.5;;
51194;SDS011;37259;49.972;19.850;2023-04-01T03:42:05;3.7;;;1.5;;
51194;SDS011;37259;49.972;19.850;2023-04-01T03:43:05;5.8;;;1.8;;
51194;SDS011;37259;49.972;19.850;2023-04-01T03:44:05;5.8;;;1.8;;
51194;SDS011;37259;49.972;19.850;2023-04-01T03:45:06;5.8;;;1.8;;
51194;SDS011;37259;49.972;19.850;2023-04-01T03:46:05;5.8;;;1.8;;
51194;SDS011;37259;49.972;19.850;2023-04-01T03:47:05;5.8;;;1.8;;
51194;SDS011;37259;49.972;19.850;2023-04-01T03:48:05;5.8;;;1.8;;
51194;SDS011;37259;49.972;19.850;2023-04-01T03:49:06;5.8;;;1.8;;
51194;SDS011;37259;49.972;19.850;2023-04-01T03:50:06;5.8;;;1.8;;
51194;SDS011;37259;49.972;19.850;2023-04-01T03:51:06;5.8;;;1.8;;
51194;SDS011;37259;49.972;19.850;2023-04-01T03:52:07;5.8;;;1.8;;
51194;SDS011;37259;49.972;19.850;2023-04-01T03:53:05;5.8;;;1.8;;
51194;SDS011;37259;49.972;19.850;2023-04-01T03:54:05;5.8;;;1.8;;
51194;SDS011;37259;49.972;19.850;2023-04-01T03:55:05;5.8;;;1.8;;
51194;SDS011;37259;49.972;19.850;2023-04-01T03:56:05;5.8;;;1.8;;
51194;SDS011;37259;49.972;19.850;2023-04-01T03:57:05;5.8;;;1.8;;
51194;SDS011;37259;49.972;19.850;2023-04-01T03:58:06;5.8;;;1.8;;
51194;SDS011;37259;49.972;19.850;2023-04-01T03:59:06;5.8;;;1.8;;
51194;SDS011;37259;49.972;19.850;2023-04-01T04:00:06;5.8;;;1.8;;
51194;SDS011;37259;49.972;19.850;2023-04-01T04:01:12;5.8;;;1.8;;
51194;SDS011;37259;49.972;19.850;2023-04-01T04:02:05;5.8;;;1.8;;
51194;SDS011;37259;49.972;19.850;2023-04-01T04:03:05;5.8;;;1.8;;
51194;SDS011;37259;49.972;19.850;2023-04-01T04:04:05;5.8;;;1.8;;
51194;SDS011;37259;49.972;19.850;2023-04-01T04:05:05;5.8;;;1.8;;
51194;SDS011;37259;49.972;19.850;2023-04-01T04:06:05;5.8;;;1.8;;
51194;SDS011;37259;49.972;19.850;2023-04-01T04:07:05;5.8;;;1.8;;
51194;SDS011;37259;49.972;19.850;2023-04-01T04:08:05;5.8;;;1.8;;
51194;SDS011;37259;49.972;19.850;2023-04-01T04:09:05;5.8;;;1.8;;
51194;SDS011;37259;49.972;19.850;2023-04-01T04:10:05;5.8;;;1.8;;
51194;SDS011;37259;49.972;19.850;2023-04-01T04:11:05;5.8;;;1.8;;
51194;SDS011;37259;49.972;19.850;2023-04-01T04:12:05;5.8;;;1.8;;
51194;SDS011;37259;49.972;19.850;2023-04-01T04:13:05;5.3;;;2;;
51194;SDS011;37259;49.972;19.850;2023-04-01T04:14:05;5.3;;;2;;
51194;SDS011;37259;49.972;19.850;2023-04-01T04:15:06;5.3;;;2;;
51194;SDS011;37259;49.972;19.850;2023-04-01T04:16:05;5.3;;;2;;
51194;SDS011;37259;49.972;19.850;2023-04-01T04:17:05;5.3;;;2;;
51194;SDS011;37259;49.972;19.850;2023-04-01T04:18:05;5.3;;;2;;
51194;SDS011;37259;49.972;19.850;2023-04-01T04:19:05;5.3;;;2;;
51194;SDS011;37259;49.972;19.850;2023-04-01T04:20:05;5.3;;;2;;
51194;SDS011;37259;49.972;19.850;2023-04-01T04:21:05;5.3;;;2;;
51194;SDS011;37259;49.972;19.850;2023-04-01T04:22:05;5.3;;;2;;
51194;SDS011;37259;49.972;19.850;2023-04-01T04:23:05;5.3;;;2;;
51194;SDS011;37259;49.972;19.850;2023-04-01T04:24:05;5.3;;;2;;
51194;SDS011;37259;49.972;19.850;2023-04-01T04:25:06;5.3;;;2;;
51194;SDS011;37259;49.972;19.850;2023-04-01T04:26:06;5.3;;;2;;
51194;SDS011;37259;49.972;19.850;2023-04-01T04:27:05;5.3;;;2;;
51194;SDS011;37259;49.972;19.850;2023-04-01T04:28:05;5.3;;;2;;
51194;SDS011;37259;49.972;19.850;2023-04-01T04:29:05;5.3;;;2;;
51194;SDS011;37259;49.972;19.850;2023-04-01T04:30:06;5.3;;;2;;
51194;SDS011;37259;49.972;19.850;2023-04-01T04:31:05;5.3;;;2;;
51194;SDS011;37259;49.972;19.850;2023-04-01T04:32:05;5.3;;;2;;
51194;SDS011;37259;49.972;19.850;2023-04-01T04:33:05;5.3;;;2;;
51194;SDS011;37259;49.972;19.850;2023-04-01T04:34:05;5.3;;;2;;
51194;SDS011;37259;49.972;19.850;2023-04-01T04:35:05;5.3;;;2;;
51194;SDS011;37259;49.972;19.850;2023-04-01T04:36:05;5.3;;;2;;
51194;SDS011;37259;49.972;19.850;2023-04-01T04:37:05;5.3;;;2;;
51194;SDS011;37259;49.972;19.850;2023-04-01T04:38:05;5.3;;;2;;
51194;SDS011;37259;49.972;19.850;2023-04-01T04:39:05;5.3;;;2;;
51194;SDS011;37259;49.972;19.850;2023-04-01T04:40:06;5.3;;;2;;
51194;SDS011;37259;49.972;19.850;2023-04-01T04:41:08;5.3;;;2;;
51194;SDS011;37259;49.972;19.850;2023-04-01T04:42:05;5.3;;;2;;
51194;SDS011;37259;49.972;19.850;2023-04-01T04:43:05;5.1;;;1.7;;
51194;SDS011;37259;49.972;19.850;2023-04-01T04:44:05;5.1;;;1.7;;
51194;SDS011;37259;49.972;19.850;2023-04-01T04:45:06;5.1;;;1.7;;
51194;SDS011;37259;49.972;19.850;2023-04-01T04:46:05;5.1;;;1.7;;
51194;SDS011;37259;49.972;19.850;2023-04-01T04:47:05;5.1;;;1.7;;
51194;SDS011;37259;49.972;19.850;2023-04-01T04:48:06;5.1;;;1.7;;
51194;SDS011;37259;49.972;19.850;2023-04-01T04:49:05;5.1;;;1.7;;
51194;SDS011;37259;49.972;19.850;2023-04-01T04:50:06;5.1;;;1.7;;
51194;SDS011;37259;49.972;19.850;2023-04-01T04:51:05;5.1;;;1.7;;
51194;SDS011;37259;49.972;19.850;2023-04-01T04:52:05;5.1;;;1.7;;
51194;SDS011;37259;49.972;19.850;2023-04-01T04:53:05;5.1;;;1.7;;
51194;SDS011;37259;49.972;19.850;2023-04-01T04:54:05;5.1;;;1.7;;
51194;SDS011;37259;49.972;19.850;2023-04-01T04:55:05;5.1;;;1.7;;
51194;SDS011;37259;49.972;19.850;2023-04-01T04:56:05;5.1;;;1.7;;
51194;SDS011;37259;49.972;19.850;2023-04-01T04:57:05;5.1;;;1.7;;
51194;SDS011;37259;49.972;19.850;2023-04-01T04:58:05;5.1;;;1.7;;
51194;SDS011;37259;49.972;19.850;2023-04-01T04:59:05;5.1;;;1.7;;
51194;SDS011;37259;49.972;19.850;2023-04-01T05:00:05;5.1;;;1.7;;
51194;SDS011;37259;49.972;19.850;2023-04-01T05:01:06;5.1;;;1.7;;
51194;SDS011;37259;49.972;19.850;2023-04-01T05:02:05;5.1;;;1.7;;
51194;SDS011;37259;49.972;19.850;2023-04-01T05:03:05;5.1;;;1.7;;
51194;SDS011;37259;49.972;19.850;2023-04-01T05:04:05;5.1;;;1.7;;
51194;SDS011;37259;49.972;19.850;2023-04-01T05:05:05;5.1;;;1.7;;
51194;SDS011;37259;49.972;19.850;2023-04-01T05:06:06;5.1;;;1.7;;
51194;SDS011;37259;49.972;19.850;2023-04-01T05:07:05;5.1;;;1.7;;
51194;SDS011;37259;49.972;19.850;2023-04-01T05:08:05;5.1;;;1.7;;
51194;SDS011;37259;49.972;19.850;2023-04-01T05:09:05;5.1;;;1.7;;
51194;SDS011;37259;49.972;19.850;2023-04-01T05:10:05;5.1;;;1.7;;
51194;SDS011;37259;49.972;19.850;2023-04-01T05:11:06;5.1;;;1.7;;
51194;SDS011;37259;49.972;19.850;2023-04-01T05:12:05;5.1;;;1.7;;
51194;SDS011;37259;49.972;19.850;2023-04-01T05:13:05;3.9;;;1.6;;
51194;SDS011;37259;49.972;19.850;2023-04-01T05:14:05;3.9;;;1.6;;
51194;SDS011;37259;49.972;19.850;2023-04-01T05:15:05;3.9;;;1.6;;
51194;SDS011;37259;49.972;19.850;2023-04-01T05:16:07;3.9;;;1.6;;
51194;SDS011;37259;49.972;19.850;2023-04-01T05:17:07;3.9;;;1.6;;
51194;SDS011;37259;49.972;19.850;2023-04-01T05:18:05;3.9;;;1.6;;
51194;SDS011;37259;49.972;19.850;2023-04-01T05:19:05;3.9;;;1.6;;
51194;SDS011;37259;49.972;19.850;2023-04-01T05:20:06;3.9;;;1.6;;
51194;SDS011;37259;49.972;19.850;2023-04-01T05:21:06;3.9;;;1.6;;
51194;SDS011;37259;49.972;19.850;2023-04-01T05:22:05;3.9;;;1.6;;
51194;SDS011;37259;49.972;19.850;2023-04-01T05:23:05;3.9;;;1.6;;
51194;SDS011;37259;49.972;19.850;2023-04-01T05:24:07;3.9;;;1.6;;
51194;SDS011;37259;49.972;19.850;2023-04-01T05:25:05;3.9;;;1.6;;
51194;SDS011;37259;49.972;19.850;2023-04-01T05:26:06;3.9;;;1.6;;
51194;SDS011;37259;49.972;19.850;2023-04-01T05:27:05;3.9;;;1.6;;
51194;SDS011;37259;49.972;19.850;2023-04-01T05:28:05;3.9;;;1.6;;
51194;SDS011;37259;49.972;19.850;2023-04-01T05:29:05;3.9;;;1.6;;
51194;SDS011;37259;49.972;19.850;2023-04-01T05:30:06;3.9;;;1.6;;
51194;SDS011;37259;49.972;19.850;2023-04-01T05:31:06;3.9;;;1.6;;
51194;SDS011;37259;49.972;19.850;2023-04-01T05:32:05;3.9;;;1.6;;
51194;SDS011;37259;49.972;19.850;2023-04-01T05:33:05;3.9;;;1.6;;
51194;SDS011;37259;49.972;19.850;2023-04-01T05:34:05;3.9;;;1.6;;
51194;SDS011;37259;49.972;19.850;2023-04-01T05:35:05;3.9;;;1.6;;
51194;SDS011;37259;49.972;19.850;2023-04-01T05:36:06;3.9;;;1.6;;
51194;SDS011;37259;49.972;19.850;2023-04-01T05:37:05;3.9;;;1.6;;
51194;SDS011;37259;49.972;19.850;2023-04-01T05:38:05;3.9;;;1.6;;
51194;SDS011;37259;49.972;19.850;2023-04-01T05:39:05;3.9;;;1.6;;
51194;SDS011;37259;49.972;19.850;2023-04-01T05:40:06;3.9;;;1.6;;
51194;SDS011;37259;49.972;19.850;2023-04-01T05:41:05;3.9;;;1.6;;
51194;SDS011;37259;49.972;19.850;2023-04-01T05:42:05;3.9;;;1.6;;
51194;SDS011;37259;49.972;19.850;2023-04-01T05:43:05;3.5;;;1.6;;
51194;SDS011;37259;49.972;19.850;2023-04-01T05:44:05;3.5;;;1.6;;
51194;SDS011;37259;49.972;19.850;2023-04-01T05:45:06;3.5;;;1.6;;
51194;SDS011;37259;49.972;19.850;2023-04-01T05:46:05;3.5;;;1.6;;
51194;SDS011;37259;49.972;19.850;2023-04-01T05:47:05;3.5;;;1.6;;
51194;SDS011;37259;49.972;19.850;2023-04-01T05:48:05;3.5;;;1.6;;
51194;SDS011;37259;49.972;19.850;2023-04-01T05:49:05;3.5;;;1.6;;
51194;SDS011;37259;49.972;19.850;2023-04-01T05:50:05;3.5;;;1.6;;
51194;SDS011;37259;49.972;19.850;2023-04-01T05:51:05;3.5;;;1.6;;
51194;SDS011;37259;49.972;19.850;2023-04-01T05:52:05;3.5;;;1.6;;
51194;SDS011;37259;49.972;19.850;2023-04-01T05:53:05;3.5;;;1.6;;
51194;SDS011;37259;49.972;19.850;2023-04-01T05:54:05;3.5;;;1.6;;
51194;SDS011;37259;49.972;19.850;2023-04-01T05:55:05;3.5;;;1.6;;
51194;SDS011;37259;49.972;19.850;2023-04-01T05:56:05;3.5;;;1.6;;
51194;SDS011;37259;49.972;19.850;2023-04-01T05:57:05;3.5;;;1.6;;
51194;SDS011;37259;49.972;19.850;2023-04-01T05:58:05;3.5;;;1.6;;
51194;SDS011;37259;49.972;19.850;2023-04-01T05:59:05;3.5;;;1.6;;
51194;SDS011;37259;49.972;19.850;2023-04-01T06:00:06;3.5;;;1.6;;
51194;SDS011;37259;49.972;19.850;2023-04-01T06:01:06;3.5;;;1.6;;
51194;SDS011;37259;49.972;19.850;2023-04-01T06:02:05;3.5;;;1.6;;
51194;SDS011;37259;49.972;19.850;2023-04-01T06:03:05;3.5;;;1.6;;
51194;SDS011;37259;49.972;19.850;2023-04-01T06:04:05;3.5;;;1.6;;
51194;SDS011;37259;49.972;19.850;2023-04-01T06:05:11;3.5;;;1.6;;
51194;SDS011;37259;49.972;19.850;2023-04-01T06:06:08;3.5;;;1.6;;
51194;SDS011;37259;49.972;19.850;2023-04-01T06:07:10;3.5;;;1.6;;
51194;SDS011;37259;49.972;19.850;2023-04-01T06:08:08;3.5;;;1.6;;
51194;SDS011;37259;49.972;19.850;2023-04-01T06:09:07;3.5;;;1.6;;
51194;SDS011;37259;49.972;19.850;2023-04-01T06:10:09;3.5;;;1.6;;